createdAt,value
2018-02-06T00:03:01.000Z,24.08
2018-02-06T00:13:00.000Z,24.05
2018-02-06T00:23:00.000Z,24.02
2018-02-06T00:33:01.000Z,24
2018-02-06T00:43:01.000Z,23.93
2018-02-06T00:53:01.000Z,23.89
2018-02-06T01:03:01.000Z,23.86
2018-02-06T01:13:01.000Z,23.76
2018-02-06T01:23:01.000Z,23.76
2018-02-06T01:33:01.000Z,23.74
2018-02-06T01:43:01.000Z,23.63
2018-02-06T01:53:01.000Z,23.61
2018-02-06T02:03:01.000Z,23.59
2018-02-06T02:13:01.000Z,23.6
2018-02-06T02:23:01.000Z,23.49
2018-02-06T02:33:01.000Z,23.45
2018-02-06T04:43:01.000Z,22.8
2018-02-06T04:53:01.000Z,22.65
2018-02-06T05:03:01.000Z,22.72
2018-02-06T05:13:01.000Z,22.69
2018-02-06T05:23:01.000Z,22.62
2018-02-06T05:33:01.000Z,22.6
2018-02-06T05:43:01.000Z,22.59
2018-02-06T05:53:01.000Z,22.63
2018-02-06T06:03:01.000Z,22.58
2018-02-06T06:13:01.000Z,22.6
2018-02-06T06:23:01.000Z,22.59
2018-02-06T06:33:01.000Z,22.57
2018-02-06T06:43:01.000Z,22.55
2018-02-06T06:53:01.000Z,22.64
2018-02-06T07:03:01.000Z,22.67
2018-02-06T07:13:01.000Z,22.71
2018-02-06T07:23:01.000Z,22.71
2018-02-06T07:33:01.000Z,22.77
2018-02-06T07:43:01.000Z,22.81
2018-02-06T07:53:01.000Z,22.84
2018-02-06T08:03:01.000Z,22.84
2018-02-06T08:13:01.000Z,22.89
2018-02-06T08:23:01.000Z,22.97
2018-02-06T08:33:01.000Z,23.1
2018-02-06T08:43:01.000Z,23.24
2018-02-06T08:53:01.000Z,23.37
2018-02-06T09:03:01.000Z,23.33
2018-02-06T09:13:02.000Z,23.42
2018-02-06T09:23:02.000Z,23.54
2018-02-06T09:33:02.000Z,23.65
2018-02-06T09:43:02.000Z,23.77
2018-02-06T09:53:04.000Z,24.01
2018-02-06T10:03:02.000Z,24.1
2018-02-06T10:13:02.000Z,24.12
2018-02-06T10:23:02.000Z,24.14
2018-02-06T10:33:02.000Z,24.29
2018-02-06T10:43:02.000Z,24.44
2018-02-06T10:53:02.000Z,24.54
2018-02-06T11:03:02.000Z,24.57
2018-02-06T11:23:02.000Z,24.71
2018-02-06T11:33:02.000Z,24.67
2018-02-06T11:43:02.000Z,24.76
2018-02-06T11:53:02.000Z,24.84
2018-02-06T12:03:02.000Z,24.83
2018-02-06T12:13:02.000Z,24.89
2018-02-06T12:23:02.000Z,25.06
2018-02-06T12:33:02.000Z,25.24
2018-02-06T12:43:02.000Z,25.13
2018-02-06T12:53:02.000Z,25.18
2018-02-06T13:03:02.000Z,25.09
2018-02-06T13:13:02.000Z,25.11
2018-02-06T13:23:02.000Z,25.04
2018-02-06T13:33:02.000Z,25.03
2018-02-06T13:43:02.000Z,25.04
2018-02-06T13:53:02.000Z,24.99
2018-02-06T14:03:02.000Z,24.99
2018-02-06T14:13:02.000Z,25.05
2018-02-06T14:23:02.000Z,24.91
2018-02-06T14:33:02.000Z,24.81
2018-02-06T14:43:02.000Z,24.79
2018-02-06T14:53:02.000Z,24.7
2018-02-06T15:03:02.000Z,24.66
2018-02-06T15:13:02.000Z,24.58
2018-02-06T15:23:02.000Z,24.59
2018-02-06T15:33:03.000Z,24.61
2018-02-06T15:43:02.000Z,24.68
2018-02-06T15:53:02.000Z,24.61
2018-02-06T16:03:02.000Z,24.73
2018-02-06T16:13:02.000Z,24.68
2018-02-06T16:23:02.000Z,24.68
2018-02-06T16:33:02.000Z,24.62
2018-02-06T16:43:02.000Z,24.59
2018-02-06T16:53:02.000Z,24.62
2018-02-06T17:03:02.000Z,24.61
2018-02-06T17:13:02.000Z,24.57
2018-02-06T17:23:02.000Z,24.61
2018-02-06T17:33:03.000Z,24.68
2018-02-06T17:43:03.000Z,24.66
2018-02-06T17:53:03.000Z,24.62
2018-02-06T18:03:03.000Z,24.59
2018-02-06T18:13:03.000Z,24.57
2018-02-06T18:23:03.000Z,24.58
2018-02-06T18:33:03.000Z,24.59
2018-02-06T18:43:03.000Z,24.6
2018-02-06T18:53:03.000Z,24.64
2018-02-06T19:03:03.000Z,24.46
2018-02-06T19:13:03.000Z,24.51
2018-02-06T19:23:03.000Z,24.19
2018-02-06T19:33:03.000Z,24.15
2018-02-06T19:43:03.000Z,24.26
2018-02-06T19:53:03.000Z,24.33
2018-02-06T20:03:03.000Z,24.31
2018-02-06T20:13:03.000Z,24.28
2018-02-06T20:23:03.000Z,24.35
2018-02-06T20:33:03.000Z,24.36
2018-02-06T20:43:03.000Z,24.38
2018-02-06T20:53:03.000Z,24.36
2018-02-06T21:03:03.000Z,24.34
2018-02-06T21:13:03.000Z,24.34
2018-02-06T21:23:03.000Z,24.33
2018-02-06T21:33:03.000Z,24.39
2018-02-06T21:43:03.000Z,24.49
2018-02-06T21:53:03.000Z,24.47
2018-02-06T22:03:03.000Z,24.32
2018-02-06T22:13:03.000Z,24.3
2018-02-06T22:23:03.000Z,24.36
2018-02-06T22:33:03.000Z,24.46
2018-02-06T22:43:03.000Z,24.52
2018-02-06T22:53:03.000Z,24.59
2018-02-06T23:03:03.000Z,24.57
2018-02-06T23:13:03.000Z,24.51
2018-02-06T23:23:03.000Z,24.46
2018-02-06T23:33:03.000Z,24.45
2018-02-06T23:43:03.000Z,24.35
2018-02-06T23:53:03.000Z,24.32
